Time;durP1;ratioP1;P1;durP2;ratioP2;P2;SDS_P1;SDS_P2;PMS_P1;PMS_P2;Temp;Humidity;BMP_temperature;BMP_pressure;BME280_temperature;BME280_humidity;BME280_pressure;Samples;Min_cycle;Max_cycle;Signal;HPM_P1;HPM_P2
2022/01/05 00:00:31;;;;;;;0.60;0.30;;;5.20;99.90;;;;;;5032666;28;20807;-75
2022/01/05 00:02:57;;;;;;;1.07;0.40;;;5.20;99.90;;;;;;5032427;28;20417;-75
2022/01/05 00:05:22;;;;;;;0.77;0.40;;;5.30;99.90;;;;;;5032437;28;20181;-73
2022/01/05 00:07:48;;;;;;;0.60;0.43;;;5.40;99.90;;;;;;5031104;28;20212;-74
2022/01/05 00:10:14;;;;;;;0.60;0.40;;;5.40;99.90;;;;;;5031989;28;20579;-74
2022/01/05 00:18:43;;;;;;;0.97;0.40;;;5.60;99.90;;;;;;5053632;28;20473;-78
2022/01/05 00:21:09;;;;;;;0.60;0.30;;;5.70;99.90;;;;;;5019082;28;20822;-79
2022/01/05 00:23:35;;;;;;;0.50;0.30;;;5.70;99.90;;;;;;5035999;28;20615;-78
2022/01/05 00:26:03;;;;;;;0.50;0.30;;;5.80;99.90;;;;;;5033327;28;20891;-75
2022/01/05 00:28:29;;;;;;;0.70;0.30;;;5.80;99.90;;;;;;5057223;28;20187;-79
2022/01/05 00:33:30;;;;;;;0.60;0.40;;;5.90;99.90;;;;;;5500638;22;20267;-75
2022/01/05 00:35:56;;;;;;;0.60;0.30;;;5.90;99.90;;;;;;5051655;28;20442;-75
2022/01/05 00:38:21;;;;;;;0.77;0.40;;;5.90;99.90;;;;;;5033785;28;20434;-76
2022/01/05 00:40:47;;;;;;;0.50;0.30;;;5.90;99.90;;;;;;5051752;28;20639;-75
2022/01/05 00:43:12;;;;;;;0.50;0.30;;;6.00;99.90;;;;;;5050148;28;20199;-76
2022/01/05 00:45:38;;;;;;;1.00;0.30;;;5.90;99.90;;;;;;5051856;28;20242;-75
2022/01/05 00:48:04;;;;;;;0.70;0.30;;;6.00;99.90;;;;;;5033500;28;20191;-75
2022/01/05 00:50:30;;;;;;;1.80;0.40;;;6.00;99.90;;;;;;5051520;28;20246;-76
2022/01/05 00:53:00;;;;;;;0.60;0.40;;;5.90;99.90;;;;;;5051314;28;20550;-76
2022/01/05 00:55:29;;;;;;;0.50;0.30;;;5.90;99.90;;;;;;5051392;28;20620;-76
2022/01/05 00:57:55;;;;;;;0.80;0.30;;;6.00;99.90;;;;;;5051379;28;20777;-76
2022/01/05 01:00:20;;;;;;;0.60;0.30;;;5.90;99.90;;;;;;5051536;28;20480;-76
2022/01/05 01:02:46;;;;;;;1.90;0.30;;;6.00;99.90;;;;;;5051550;28;20500;-76
2022/01/05 01:05:14;;;;;;;0.50;0.30;;;6.00;99.90;;;;;;5051548;28;20192;-76
2022/01/05 01:07:40;;;;;;;0.50;0.30;;;6.00;99.90;;;;;;5033785;28;20589;-77
2022/01/05 01:10:06;;;;;;;0.50;0.20;;;6.00;99.90;;;;;;5051336;28;20462;-76
2022/01/05 01:12:34;;;;;;;0.80;0.40;;;6.00;99.90;;;;;;5033446;28;20450;-76
2022/01/05 01:15:04;;;;;;;0.77;0.30;;;6.00;99.90;;;;;;5051355;28;20423;-76
2022/01/05 01:17:30;;;;;;;4.43;0.30;;;6.10;99.90;;;;;;5016865;28;20488;-76
2022/01/05 01:19:55;;;;;;;0.70;0.40;;;6.10;99.90;;;;;;5051429;28;20422;-76
2022/01/05 01:22:21;;;;;;;0.60;0.40;;;6.10;99.90;;;;;;5051335;28;20203;-76
2022/01/05 01:24:46;;;;;;;0.50;0.30;;;6.10;99.90;;;;;;5033283;28;20278;-76
2022/01/05 01:27:12;;;;;;;0.80;0.37;;;6.20;99.90;;;;;;5016971;28;20223;-77
2022/01/05 01:29:38;;;;;;;1.17;0.37;;;6.30;99.90;;;;;;5051199;28;20236;-76
2022/01/05 01:32:04;;;;;;;3.80;0.43;;;6.30;99.90;;;;;;5051077;28;20229;-76
2022/01/05 01:34:30;;;;;;;0.50;0.30;;;6.30;99.90;;;;;;5050845;28;20257;-76
2022/01/05 01:36:56;;;;;;;0.50;0.30;;;6.20;99.90;;;;;;5032713;28;20862;-75
2022/01/05 01:39:22;;;;;;;0.80;0.40;;;6.30;99.90;;;;;;5050783;28;20519;-75
2022/01/05 01:41:47;;;;;;;1.93;0.40;;;6.30;99.90;;;;;;5050639;28;20672;-75
2022/01/05 01:44:13;;;;;;;0.50;0.30;;;6.30;99.90;;;;;;5050639;28;20239;-76
2022/01/05 01:46:39;;;;;;;0.67;0.30;;;6.30;99.90;;;;;;5050679;28;20576;-76
2022/01/05 01:49:04;;;;;;;0.80;0.50;;;6.30;99.90;;;;;;5050635;28;20199;-77
2022/01/05 01:51:30;;;;;;;6.13;0.50;;;6.30;99.90;;;;;;5050985;28;20179;-76
2022/01/05 01:53:56;;;;;;;0.90;0.40;;;6.30;99.90;;;;;;5050233;28;20310;-76
2022/01/05 01:56:24;;;;;;;1.10;0.47;;;6.40;99.90;;;;;;5050567;28;20216;-76
2022/01/05 01:58:51;;;;;;;0.60;0.40;;;6.40;99.90;;;;;;5050491;28;20418;-76
2022/01/05 02:01:17;;;;;;;1.43;0.30;;;6.40;99.90;;;;;;5050387;28;20947;-76
2022/01/05 02:03:43;;;;;;;0.70;0.40;;;6.40;99.90;;;;;;5049863;28;20516;-76
2022/01/05 02:06:09;;;;;;;0.93;0.40;;;6.30;99.90;;;;;;5050133;28;20484;-76
2022/01/05 02:08:35;;;;;;;0.60;0.30;;;6.10;99.90;;;;;;5050288;28;20460;-75
2022/01/05 02:11:03;;;;;;;0.77;0.47;;;6.10;99.90;;;;;;5050084;28;20865;-76
2022/01/05 02:13:28;;;;;;;0.60;0.30;;;6.10;99.90;;;;;;5050257;28;20200;-77
2022/01/05 02:15:54;;;;;;;2.30;0.50;;;6.00;99.90;;;;;;5050359;28;20423;-76
2022/01/05 02:21:09;;;;;;;0.50;0.40;;;5.80;99.90;;;;;;5049815;28;20271;-75
2022/01/05 02:23:36;;;;;;;0.60;0.37;;;5.70;99.90;;;;;;5049597;28;20433;-75
2022/01/05 02:26:04;;;;;;;0.80;0.50;;;5.70;99.90;;;;;;5049506;28;21249;-75
2022/01/05 02:28:29;;;;;;;0.70;0.40;;;5.60;99.90;;;;;;5031322;28;20429;-75
2022/01/05 02:30:57;;;;;;;1.23;0.37;;;5.60;99.90;;;;;;5049124;28;20462;-76
2022/01/05 02:33:23;;;;;;;0.60;0.40;;;5.50;99.90;;;;;;5049124;28;20203;-76
2022/01/05 02:35:50;;;;;;;0.60;0.50;;;5.40;99.90;;;;;;5049070;28;20548;-76
2022/01/05 02:38:20;;;;;;;0.60;0.40;;;5.40;99.90;;;;;;5031035;28;20482;-77
2022/01/05 02:40:46;;;;;;;5.27;0.50;;;5.40;99.90;;;;;;5049022;28;20426;-76
2022/01/05 02:43:12;;;;;;;0.70;0.50;;;5.50;99.90;;;;;;5049064;28;20465;-76
2022/01/05 02:45:38;;;;;;;0.50;0.30;;;5.40;99.90;;;;;;5048968;28;20422;-75
2022/01/05 02:48:04;;;;;;;0.60;0.40;;;5.30;99.90;;;;;;5048885;28;20191;-75
2022/01/05 02:50:30;;;;;;;0.60;0.50;;;5.30;99.90;;;;;;5048813;28;20566;-75
2022/01/05 02:52:56;;;;;;;0.97;0.40;;;5.30;99.90;;;;;;5048776;28;20437;-75
2022/01/05 02:55:21;;;;;;;1.17;0.40;;;5.20;99.90;;;;;;5048802;28;21250;-75
2022/01/05 02:57:47;;;;;;;3.33;0.40;;;5.20;99.90;;;;;;5048705;28;20183;-75
2022/01/05 03:00:14;;;;;;;0.50;0.30;;;5.10;99.90;;;;;;5048749;28;20194;-75
2022/01/05 03:02:40;;;;;;;0.60;0.30;;;5.10;99.90;;;;;;5048644;28;20195;-75
2022/01/05 03:05:07;;;;;;;0.60;0.40;;;5.00;99.90;;;;;;5030615;28;20632;-75
2022/01/05 03:07:37;;;;;;;0.50;0.30;;;5.00;99.90;;;;;;5047871;28;20996;-75
2022/01/05 03:10:03;;;;;;;0.60;0.30;;;5.10;99.90;;;;;;5048436;28;20477;-74
2022/01/05 03:12:29;;;;;;;0.50;0.30;;;5.00;99.90;;;;;;5048601;28;20456;-75
2022/01/05 03:14:55;;;;;;;0.50;0.30;;;5.10;99.90;;;;;;5048489;28;20425;-75
2022/01/05 03:17:20;;;;;;;3.40;0.40;;;5.10;99.90;;;;;;5030630;28;20274;-75
2022/01/05 03:19:46;;;;;;;0.50;0.30;;;5.20;99.90;;;;;;5048403;28;20285;-76
2022/01/05 03:22:12;;;;;;;0.70;0.37;;;5.20;99.90;;;;;;5048424;28;20210;-75
2022/01/05 03:24:37;;;;;;;0.63;0.40;;;5.30;99.90;;;;;;5048469;28;20188;-75
2022/01/05 03:27:03;;;;;;;0.60;0.40;;;5.40;99.90;;;;;;5048466;28;20766;-76
2022/01/05 03:29:29;;;;;;;0.87;0.33;;;5.40;99.90;;;;;;5048303;28;20635;-75
2022/01/05 03:31:55;;;;;;;0.60;0.40;;;5.40;99.90;;;;;;5048284;28;20486;-75
2022/01/05 03:34:20;;;;;;;0.50;0.30;;;5.40;99.90;;;;;;5048180;28;20589;-75
2022/01/05 03:36:46;;;;;;;0.60;0.30;;;5.40;99.90;;;;;;5030086;28;20219;-75
2022/01/05 03:39:13;;;;;;;1.63;0.30;;;5.30;99.90;;;;;;5048177;28;20562;-75
2022/01/05 03:41:39;;;;;;;0.50;0.30;;;5.30;99.90;;;;;;5030011;28;20430;-77
2022/01/05 03:44:05;;;;;;;3.50;0.40;;;5.30;99.90;;;;;;5048310;28;21102;-76
2022/01/05 03:46:31;;;;;;;0.50;0.30;;;5.30;99.90;;;;;;5048313;28;20760;-76
2022/01/05 03:48:56;;;;;;;0.50;0.30;;;5.30;99.90;;;;;;5048124;28;20429;-75
2022/01/05 03:51:22;;;;;;;0.50;0.30;;;5.30;99.90;;;;;;5029949;28;20474;-76
2022/01/05 03:53:47;;;;;;;0.80;0.40;;;5.30;99.90;;;;;;5048014;28;20568;-76
2022/01/05 03:56:13;;;;;;;0.50;0.30;;;5.20;99.90;;;;;;5048189;28;20250;-76
2022/01/05 03:58:39;;;;;;;0.80;0.40;;;5.10;99.90;;;;;;5048234;28;20190;-76
2022/01/05 04:01:04;;;;;;;0.50;0.30;;;5.10;99.90;;;;;;5048244;28;20180;-76
2022/01/05 04:03:30;;;;;;;0.50;0.27;;;5.10;99.90;;;;;;5030143;28;20687;-75
2022/01/05 04:05:57;;;;;;;0.50;0.30;;;5.10;99.90;;;;;;5029936;28;20213;-75
2022/01/05 04:08:22;;;;;;;0.50;0.30;;;5.10;99.90;;;;;;5048128;28;20422;-75
2022/01/05 04:10:48;;;;;;;0.50;0.30;;;5.20;99.90;;;;;;5047893;28;20314;-75
2022/01/05 04:13:15;;;;;;;0.50;0.30;;;5.20;99.90;;;;;;5048116;28;20211;-75
2022/01/05 04:15:41;;;;;;;0.50;0.30;;;5.20;99.90;;;;;;5048139;28;20202;-73
2022/01/05 04:18:06;;;;;;;0.50;0.30;;;5.10;99.90;;;;;;5050858;28;20422;-76
2022/01/05 04:20:32;;;;;;;0.50;0.30;;;5.10;99.90;;;;;;5052547;28;20200;-75
2022/01/05 04:22:58;;;;;;;0.50;0.30;;;5.10;99.90;;;;;;5052417;28;20216;-77
2022/01/05 04:25:24;;;;;;;0.60;0.30;;;5.30;99.90;;;;;;5034435;28;20437;-77
2022/01/05 04:27:50;;;;;;;0.50;0.30;;;5.20;99.90;;;;;;5052552;28;20191;-76
2022/01/05 04:30:16;;;;;;;0.70;0.30;;;5.20;99.90;;;;;;5052322;28;20297;-76
2022/01/05 04:32:42;;;;;;;0.50;0.30;;;5.20;99.90;;;;;;5052142;28;20728;-76
2022/01/05 04:35:11;;;;;;;0.60;0.30;;;5.40;99.90;;;;;;5052001;28;20664;-74
2022/01/05 04:37:37;;;;;;;0.53;0.30;;;5.30;99.90;;;;;;5052186;28;20439;-77
2022/01/05 04:40:04;;;;;;;0.60;0.30;;;5.40;99.90;;;;;;5034294;28;20426;-75
2022/01/05 04:42:29;;;;;;;0.87;0.30;;;5.30;99.90;;;;;;5052060;28;20782;-76
2022/01/05 04:44:55;;;;;;;0.90;0.30;;;5.20;99.90;;;;;;5034682;28;20437;-76
2022/01/05 04:47:21;;;;;;;0.50;0.30;;;5.40;99.90;;;;;;5052162;28;20188;-76
2022/01/05 04:49:47;;;;;;;0.50;0.30;;;5.40;99.90;;;;;;5051612;28;20215;-76
2022/01/05 04:52:13;;;;;;;1.03;0.30;;;5.40;99.90;;;;;;5051375;28;20907;-77
2022/01/05 04:54:38;;;;;;;0.60;0.30;;;5.50;99.90;;;;;;5033346;28;20450;-77
2022/01/05 04:57:06;;;;;;;0.60;0.40;;;5.30;99.90;;;;;;5051292;28;20360;-77
2022/01/05 04:59:32;;;;;;;0.53;0.30;;;5.40;99.90;;;;;;5051819;28;20198;-78
2022/01/05 05:01:58;;;;;;;0.50;0.30;;;5.40;99.90;;;;;;5035057;28;20458;-77
2022/01/05 05:04:23;;;;;;;0.50;0.30;;;5.30;99.90;;;;;;5032699;28;20491;-76
2022/01/05 05:06:50;;;;;;;0.50;0.30;;;5.30;99.90;;;;;;5050715;28;20191;-76
2022/01/05 05:09:16;;;;;;;0.50;0.30;;;5.30;99.90;;;;;;5050612;28;20215;-76
2022/01/05 05:11:41;;;;;;;0.50;0.27;;;5.30;99.90;;;;;;5050733;28;20927;-76
2022/01/05 05:14:08;;;;;;;0.50;0.20;;;5.40;99.90;;;;;;5050568;28;20488;-76
2022/01/05 05:16:34;;;;;;;0.50;0.30;;;5.30;99.90;;;;;;5032799;28;20180;-76
2022/01/05 05:19:00;;;;;;;0.50;0.30;;;5.40;99.90;;;;;;5050722;28;21061;-76
2022/01/05 05:21:25;;;;;;;0.50;0.30;;;5.40;99.90;;;;;;5050676;28;20651;-76
2022/01/05 05:23:51;;;;;;;0.70;0.30;;;5.40;99.90;;;;;;5050378;28;20211;-76
2022/01/05 05:26:17;;;;;;;0.50;0.30;;;5.30;99.90;;;;;;5050464;28;20551;-76
2022/01/05 05:28:42;;;;;;;0.50;0.30;;;5.30;99.90;;;;;;5031920;28;20246;-76
2022/01/05 05:31:10;;;;;;;1.20;0.40;;;5.30;99.90;;;;;;5050169;28;20819;-76
2022/01/05 05:33:36;;;;;;;0.60;0.40;;;5.30;99.90;;;;;;5032616;28;20377;-76
2022/01/05 05:36:02;;;;;;;0.60;0.30;;;5.20;99.90;;;;;;5032125;28;21205;-76
2022/01/05 05:38:28;;;;;;;0.50;0.30;;;5.10;99.90;;;;;;5032359;28;20194;-76
2022/01/05 05:40:54;;;;;;;0.90;0.33;;;5.10;99.90;;;;;;5032127;28;20815;-77
2022/01/05 05:43:20;;;;;;;0.53;0.30;;;4.80;99.90;;;;;;5050172;28;20442;-78
2022/01/05 05:45:46;;;;;;;0.70;0.50;;;4.80;99.90;;;;;;5050225;28;20471;-78
2022/01/05 05:48:12;;;;;;;0.60;0.40;;;4.80;99.90;;;;;;5050142;28;20198;-77
2022/01/05 05:50:37;;;;;;;0.70;0.40;;;4.60;99.90;;;;;;5050167;28;20210;-77
2022/01/05 05:53:03;;;;;;;0.73;0.40;;;4.70;99.90;;;;;;5031569;28;20245;-77
2022/01/05 05:55:29;;;;;;;0.60;0.40;;;4.60;99.90;;;;;;5049258;28;20221;-78
2022/01/05 05:57:55;;;;;;;0.60;0.40;;;4.40;99.90;;;;;;5049555;28;20585;-78
2022/01/05 06:00:21;;;;;;;0.80;0.40;;;4.40;99.90;;;;;;5031605;28;20186;-77
2022/01/05 06:02:47;;;;;;;0.60;0.40;;;4.40;99.90;;;;;;5031095;28;20229;-77
2022/01/05 06:05:14;;;;;;;1.88;0.40;;;4.30;99.90;;;;;;5048638;28;20183;-78
2022/01/05 06:07:39;;;;;;;0.60;0.50;;;4.20;99.90;;;;;;5048664;28;20183;-77
2022/01/05 06:10:05;;;;;;;0.57;0.43;;;4.20;99.90;;;;;;5048266;28;20585;-77
2022/01/05 06:12:31;;;;;;;0.70;0.50;;;4.10;99.90;;;;;;5048209;28;20709;-77
2022/01/05 06:14:57;;;;;;;4.10;0.60;;;4.00;99.90;;;;;;5031744;28;20429;-77
2022/01/05 06:17:22;;;;;;;0.80;0.43;;;3.60;99.90;;;;;;5048400;28;20186;-78
2022/01/05 06:19:48;;;;;;;0.60;0.40;;;3.10;99.90;;;;;;5030212;28;20287;-77
2022/01/05 06:22:13;;;;;;;0.70;0.50;;;2.70;99.90;;;;;;5050437;28;20193;-77
2022/01/05 06:24:40;;;;;;;1.57;0.50;;;2.40;99.90;;;;;;5030868;28;20229;-78
2022/01/05 06:27:09;;;;;;;2.00;0.50;;;2.30;99.90;;;;;;5029940;28;20218;-77
2022/01/05 06:29:38;;;;;;;4.22;1.20;;;2.30;99.90;;;;;;5048145;28;20458;-77
2022/01/05 06:32:04;;;;;;;0.60;0.47;;;2.20;99.90;;;;;;5048047;28;20701;-77
2022/01/05 06:34:30;;;;;;;0.70;0.57;;;2.10;99.90;;;;;;5048319;28;20728;-77
2022/01/05 06:36:55;;;;;;;0.90;0.80;;;2.20;99.90;;;;;;5048358;28;20287;-77
2022/01/05 06:39:21;;;;;;;0.93;0.73;;;2.20;99.90;;;;;;5048050;28;20539;-78
2022/01/05 06:41:47;;;;;;;1.07;0.90;;;2.20;99.90;;;;;;5030521;28;20235;-77
2022/01/05 06:44:12;;;;;;;0.80;0.60;;;2.20;99.90;;;;;;5014079;28;20310;-78
2022/01/05 06:46:38;;;;;;;4.63;1.00;;;2.20;99.90;;;;;;5047973;28;20181;-78
2022/01/05 06:49:04;;;;;;;1.33;0.80;;;2.20;99.90;;;;;;5047797;28;20189;-77
2022/01/05 06:51:30;;;;;;;0.90;0.90;;;2.30;99.90;;;;;;5029497;28;20739;-78
2022/01/05 06:53:56;;;;;;;1.00;0.80;;;2.30;99.90;;;;;;5029562;28;20198;-77
2022/01/05 06:56:22;;;;;;;1.30;0.80;;;2.30;99.90;;;;;;5047611;28;20449;-78
2022/01/05 06:58:48;;;;;;;1.30;0.90;;;2.60;99.90;;;;;;5029933;28;20313;-79
2022/01/05 07:01:14;;;;;;;1.80;1.30;;;2.60;99.90;;;;;;5047619;28;20556;-77
2022/01/05 07:03:39;;;;;;;1.60;0.60;;;2.50;99.90;;;;;;5047583;28;20796;-78
2022/01/05 07:06:05;;;;;;;1.57;0.80;;;2.40;99.90;;;;;;5029952;28;20917;-77
2022/01/05 07:08:31;;;;;;;1.20;1.00;;;2.40;99.90;;;;;;5030019;28;20260;-77
2022/01/05 07:10:57;;;;;;;2.10;0.60;;;2.40;99.90;;;;;;5029625;28;20472;-77
2022/01/05 07:13:23;;;;;;;3.42;1.05;;;2.30;99.90;;;;;;5047762;28;20202;-77
2022/01/05 07:15:50;;;;;;;1.10;0.93;;;2.30;99.90;;;;;;5047766;28;20191;-77
2022/01/05 07:18:16;;;;;;;1.13;0.80;;;2.30;99.90;;;;;;5029563;28;20230;-77
2022/01/05 07:20:42;;;;;;;1.00;1.00;;;2.40;99.90;;;;;;5047796;28;20220;-77
2022/01/05 07:23:09;;;;;;;2.47;0.97;;;2.40;99.90;;;;;;5047811;28;20622;-77
2022/01/05 07:25:34;;;;;;;4.85;1.17;;;2.40;99.90;;;;;;5047865;28;20507;-78
2022/01/05 07:28:00;;;;;;;2.07;1.27;;;2.40;99.90;;;;;;5048018;28;20277;-77
2022/01/05 07:30:26;;;;;;;2.07;1.77;;;2.40;99.90;;;;;;5029530;28;20705;-77
2022/01/05 07:32:52;;;;;;;1.63;1.30;;;2.40;99.90;;;;;;5047568;28;20232;-77
2022/01/05 07:35:17;;;;;;;2.20;1.20;;;2.40;99.90;;;;;;5029500;28;20445;-77
2022/01/05 07:37:43;;;;;;;2.00;1.80;;;2.50;99.90;;;;;;5047536;28;20220;-77
2022/01/05 07:40:09;;;;;;;1.63;1.40;;;2.40;99.90;;;;;;5012833;28;20334;-77
2022/01/05 07:42:35;;;;;;;1.37;1.27;;;2.50;99.90;;;;;;5029032;28;20221;-77
2022/01/05 07:45:03;;;;;;;3.87;1.80;;;2.40;99.90;;;;;;5046976;28;20858;-77
2022/01/05 07:47:28;;;;;;;2.15;1.63;;;2.30;99.90;;;;;;5046745;28;20737;-77
2022/01/05 07:49:54;;;;;;;2.30;1.30;;;2.30;99.90;;;;;;5046903;28;20304;-77
2022/01/05 07:52:20;;;;;;;2.27;1.93;;;2.30;99.90;;;;;;5029492;28;20252;-77
2022/01/05 07:54:45;;;;;;;2.20;2.10;;;2.30;99.90;;;;;;5050615;28;20207;-77
2022/01/05 07:57:11;;;;;;;4.00;2.30;;;2.30;99.90;;;;;;5032690;28;20266;-77
2022/01/05 07:59:37;;;;;;;2.50;2.30;;;2.30;99.90;;;;;;5050670;28;20218;-76
2022/01/05 08:02:03;;;;;;;1.93;1.83;;;2.30;99.90;;;;;;5032222;28;20634;-77
2022/01/05 08:04:28;;;;;;;2.80;1.40;;;2.40;99.90;;;;;;5032483;28;20192;-77
2022/01/05 08:06:54;;;;;;;1.43;0.93;;;2.40;99.90;;;;;;5032454;28;20424;-77
2022/01/05 08:09:20;;;;;;;3.77;2.97;;;2.40;99.90;;;;;;5015931;28;20211;-77
2022/01/05 08:11:45;;;;;;;10.53;4.80;;;2.40;99.90;;;;;;5051059;28;20176;-76
2022/01/05 08:14:11;;;;;;;7.23;5.00;;;2.50;99.90;;;;;;5016320;28;20601;-77
2022/01/05 08:16:36;;;;;;;1.83;1.20;;;2.50;99.90;;;;;;5016377;28;20218;-76
2022/01/05 08:19:02;;;;;;;1.73;1.50;;;2.60;99.90;;;;;;5032878;28;20198;-77
2022/01/05 08:21:28;;;;;;;1.53;1.33;;;2.50;99.90;;;;;;5050776;28;20183;-76
2022/01/05 08:23:53;;;;;;;1.10;1.00;;;2.70;99.90;;;;;;5050652;28;20267;-77
2022/01/05 08:26:19;;;;;;;1.23;1.13;;;2.50;99.90;;;;;;5050395;28;20205;-76
2022/01/05 08:28:45;;;;;;;7.93;4.80;;;2.40;99.90;;;;;;5050350;28;20184;-77
2022/01/05 08:31:11;;;;;;;5.17;4.00;;;2.30;99.90;;;;;;5050157;28;20839;-77
2022/01/05 08:33:36;;;;;;;10.70;3.90;;;2.30;99.90;;;;;;5051054;28;20670;-77
2022/01/05 08:36:03;;;;;;;2.20;2.10;;;2.60;99.90;;;;;;5032322;28;20413;-77
2022/01/05 08:38:29;;;;;;;5.57;3.75;;;2.40;99.90;;;;;;5050222;28;20183;-78
2022/01/05 08:40:55;;;;;;;11.90;4.60;;;2.50;99.90;;;;;;5032285;28;20712;-77
2022/01/05 08:43:21;;;;;;;2.25;1.80;;;2.50;99.90;;;;;;5049906;28;20257;-77
2022/01/05 08:45:47;;;;;;;14.50;7.40;;;2.50;99.90;;;;;;5032117;28;20955;-77
2022/01/05 08:48:13;;;;;;;8.52;4.13;;;2.50;99.90;;;;;;5032116;28;20429;-78
2022/01/05 08:50:40;;;;;;;4.35;2.50;;;2.50;99.90;;;;;;5015087;28;20222;-76
2022/01/05 08:53:07;;;;;;;10.68;5.28;;;2.40;99.90;;;;;;5054286;28;20213;-77
2022/01/05 08:55:40;;;;;;;27.92;12.73;;;2.40;99.90;;;;;;5037271;28;20222;-77
2022/01/05 08:58:06;;;;;;;13.40;5.97;;;2.40;99.90;;;;;;5031710;28;20178;-77
2022/01/05 09:00:32;;;;;;;5.28;2.75;;;2.50;99.90;;;;;;5031488;28;20674;-77
2022/01/05 09:03:00;;;;;;;3.25;1.73;;;2.50;99.90;;;;;;5049586;28;20207;-77
2022/01/05 09:05:25;;;;;;;9.85;4.07;;;2.50;99.90;;;;;;5048709;28;20289;-77
2022/01/05 09:07:51;;;;;;;11.27;5.50;;;2.40;99.90;;;;;;5049572;28;20182;-77
2022/01/05 09:10:17;;;;;;;6.87;2.10;;;2.40;99.90;;;;;;5031466;28;20329;-78
2022/01/05 09:12:46;;;;;;;4.63;2.97;;;2.40;99.90;;;;;;5031623;28;20882;-77
2022/01/05 09:15:12;;;;;;;5.43;3.45;;;2.50;99.90;;;;;;5015165;28;20194;-77
2022/01/05 09:17:38;;;;;;;10.53;6.20;;;2.60;99.90;;;;;;5031534;28;20178;-76
2022/01/05 09:20:05;;;;;;;5.50;2.60;;;2.60;99.90;;;;;;5049346;28;20197;-78
2022/01/05 09:22:31;;;;;;;5.65;2.60;;;2.60;99.90;;;;;;5014781;28;20236;-77
2022/01/05 09:24:57;;;;;;;6.20;2.50;;;2.50;99.90;;;;;;5049561;28;20309;-77
2022/01/05 09:27:23;;;;;;;6.55;3.97;;;2.50;99.90;;;;;;5049676;28;20188;-77
2022/01/05 09:29:49;;;;;;;13.90;5.53;;;2.60;99.90;;;;;;5049475;28;20756;-77
2022/01/05 09:32:15;;;;;;;12.65;5.60;;;2.70;99.90;;;;;;5049560;28;20187;-78
2022/01/05 09:34:42;;;;;;;20.75;9.23;;;2.70;99.90;;;;;;5049607;28;20199;-77
2022/01/05 09:37:51;;;;;;;14.88;6.45;;;2.80;99.90;;;;;;5031876;28;20213;-77
2022/01/05 09:42:46;;;;;;;18.80;9.00;;;2.40;99.90;;;;;;5049844;28;20586;-76
2022/01/05 09:45:15;;;;;;;15.47;6.47;;;3.50;99.90;;;;;;5014816;28;20202;-77
2022/01/05 09:47:54;;;;;;;8.63;3.55;;;3.60;99.90;;;;;;5049531;28;20242;-77
2022/01/05 09:50:21;;;;;;;14.43;6.47;;;3.30;99.90;;;;;;5049437;28;20203;-77
2022/01/05 09:52:47;;;;;;;17.63;7.50;;;3.10;99.90;;;;;;5031377;28;20746;-77
2022/01/05 09:55:15;;;;;;;34.83;14.13;;;3.00;99.90;;;;;;5049438;28;20246;-78
2022/01/05 09:57:44;;;;;;;11.05;4.32;;;2.90;99.90;;;;;;5014674;28;20601;-77
2022/01/05 10:00:12;;;;;;;32.55;15.07;;;3.10;99.90;;;;;;5031131;28;20194;-77
2022/01/05 10:02:40;;;;;;;13.00;6.10;;;3.80;99.90;;;;;;5014453;28;20335;-77
2022/01/05 10:05:10;;;;;;;31.50;14.18;;;3.80;99.90;;;;;;5030453;28;20684;-77
2022/01/05 10:07:35;;;;;;;21.33;12.25;;;3.80;99.90;;;;;;5048365;28;20186;-77
2022/01/05 10:10:02;;;;;;;33.10;15.87;;;5.20;99.90;;;;;;5048258;28;20214;-77
2022/01/05 10:12:28;;;;;;;5.03;2.63;;;5.30;99.90;;;;;;5048645;28;21103;-77
2022/01/05 10:14:54;;;;;;;10.30;5.73;;;5.80;99.90;;;;;;5030383;28;20414;-77
2022/01/05 10:17:24;;;;;;;25.77;10.10;;;6.60;98.80;;;;;;5049063;28;20298;-77
2022/01/05 10:20:05;;;;;;;27.33;12.90;;;6.90;96.40;;;;;;5049106;28;20188;-77
2022/01/05 10:22:35;;;;;;;13.30;6.40;;;6.90;98.20;;;;;;5031083;28;20554;-77
2022/01/05 10:25:22;;;;;;;8.20;4.33;;;6.80;96.80;;;;;;5030855;28;20513;-76
2022/01/05 10:28:03;;;;;;;15.80;7.93;;;6.50;96.70;;;;;;5048771;28;20398;-77
2022/01/05 10:30:45;;;;;;;26.03;11.10;;;6.10;98.80;;;;;;5048663;28;20462;-77
2022/01/05 10:33:11;;;;;;;29.87;11.07;;;6.10;99.10;;;;;;5048464;28;20525;-77
2022/01/05 10:35:37;;;;;;;12.63;6.80;;;6.80;97.00;;;;;;5030774;28;20886;-77
2022/01/05 10:38:15;;;;;;;8.00;4.43;;;6.90;96.90;;;;;;5031094;28;20203;-77
2022/01/05 10:40:42;;;;;;;16.07;8.23;;;6.70;97.60;;;;;;5031857;28;20400;-77
2022/01/05 10:43:11;;;;;;;9.53;4.70;;;7.40;98.00;;;;;;5048474;28;20561;-77
2022/01/05 10:45:46;;;;;;;21.70;11.63;;;7.30;95.50;;;;;;5048824;28;20420;-77
2022/01/05 10:48:15;;;;;;;8.97;4.37;;;6.20;95.50;;;;;;5031258;28;20472;-76
2022/01/05 10:50:42;;;;;;;12.70;6.23;;;5.40;97.70;;;;;;5030855;28;20836;-77
2022/01/05 10:53:13;;;;;;;10.87;3.13;;;4.60;99.40;;;;;;5048829;28;20529;-77
2022/01/05 10:55:44;;;;;;;5.40;1.57;;;4.10;97.40;;;;;;5048337;28;20927;-77
2022/01/05 10:58:15;;;;;;;10.50;5.00;;;3.70;99.90;;;;;;5048481;28;20420;-77
2022/01/05 11:00:42;;;;;;;13.57;5.60;;;3.50;99.90;;;;;;5030955;28;20416;-77
2022/01/05 11:03:22;;;;;;;14.02;5.63;;;3.40;99.90;;;;;;5048056;28;20969;-76
2022/01/05 11:06:04;;;;;;;8.32;2.38;;;3.30;99.90;;;;;;5030253;28;20194;-75
2022/01/05 11:08:31;;;;;;;8.98;2.58;;;3.30;99.90;;;;;;5047893;28;20579;-76
2022/01/05 11:10:57;;;;;;;6.88;2.58;;;3.40;99.90;;;;;;5047868;28;20269;-76
2022/01/05 11:13:25;;;;;;;13.73;5.50;;;3.30;99.90;;;;;;5047699;28;20615;-75
2022/01/05 11:15:57;;;;;;;33.80;9.80;;;3.10;99.90;;;;;;5047934;28;20545;-75
2022/01/05 11:18:23;;;;;;;16.07;4.83;;;3.20;99.90;;;;;;5047822;28;20189;-74
2022/01/05 11:20:51;;;;;;;61.93;22.40;;;3.30;99.90;;;;;;5047820;28;20425;-75
2022/01/05 11:23:22;;;;;;;75.67;29.27;;;3.50;99.90;;;;;;5047740;28;20221;-76
2022/01/05 11:25:48;;;;;;;11.13;3.23;;;5.00;99.90;;;;;;5047868;28;20418;-76
2022/01/05 11:28:19;;;;;;;39.70;15.60;;;6.40;96.10;;;;;;5047115;28;20425;-77
2022/01/05 11:30:48;;;;;;;12.33;4.30;;;7.00;94.80;;;;;;5047894;28;20458;-77
2022/01/05 11:33:13;;;;;;;55.03;22.23;;;8.20;93.70;;;;;;5047670;28;20461;-78
2022/01/05 11:35:40;;;;;;;28.57;11.73;;;8.00;91.00;;;;;;5048050;28;20444;-76
2022/01/05 11:38:06;;;;;;;10.17;4.90;;;7.80;91.50;;;;;;5047919;28;20675;-76
2022/01/05 11:40:33;;;;;;;26.27;13.83;;;7.60;92.30;;;;;;5047872;28;20414;-76
2022/01/05 11:43:05;;;;;;;12.77;5.17;;;6.90;91.10;;;;;;5047862;28;21236;-76
2022/01/05 11:45:31;;;;;;;11.07;4.93;;;8.10;93.00;;;;;;5047772;28;20568;-75
2022/01/05 11:48:17;;;;;;;11.33;3.47;;;9.20;86.30;;;;;;5029613;28;21053;-76
2022/01/05 11:50:46;;;;;;;5.60;2.50;;;9.80;80.80;;;;;;5033258;28;20306;-76
2022/01/05 11:53:12;;;;;;;19.13;8.47;;;8.90;78.30;;;;;;5029959;28;20449;-78
2022/01/05 11:55:59;;;;;;;7.30;3.37;;;8.80;81.60;;;;;;5047217;28;20448;-77
2022/01/05 11:58:29;;;;;;;12.30;6.70;;;9.20;81.30;;;;;;5047360;28;20492;-77
2022/01/05 12:01:23;;;;;;;10.93;5.20;;;9.70;82.50;;;;;;5047183;28;20468;-75
2022/01/05 12:03:53;;;;;;;16.67;6.93;;;10.80;76.00;;;;;;5047235;28;20425;-77
2022/01/05 12:06:21;;;;;;;14.70;7.60;;;10.50;73.20;;;;;;5047273;28;20423;-77
2022/01/05 12:08:49;;;;;;;6.23;1.60;;;10.40;80.90;;;;;;5047545;28;20418;-77
2022/01/05 12:11:33;;;;;;;11.20;6.03;;;9.90;73.60;;;;;;5047574;28;20485;-77
2022/01/05 12:14:00;;;;;;;8.13;4.53;;;10.00;79.00;;;;;;5029946;28;20435;-77
2022/01/05 12:16:26;;;;;;;11.97;5.00;;;10.00;77.00;;;;;;5047654;28;20501;-77
2022/01/05 12:19:06;;;;;;;8.40;4.10;;;9.50;76.30;;;;;;5030000;28;20450;-77
2022/01/05 12:21:49;;;;;;;10.40;2.93;;;8.70;79.40;;;;;;5048341;28;20420;-77
2022/01/05 12:24:16;;;;;;;10.63;3.77;;;7.60;83.20;;;;;;5047852;28;20936;-77
2022/01/05 12:26:43;;;;;;;7.00;2.77;;;6.80;86.20;;;;;;5047902;28;20465;-77
2022/01/05 12:29:10;;;;;;;11.73;5.27;;;6.70;91.30;;;;;;5049357;28;20476;-76
2022/01/05 12:31:53;;;;;;;8.20;2.23;;;6.60;92.60;;;;;;5049577;28;21307;-77
2022/01/05 12:34:54;;;;;;;12.73;2.57;;;6.70;92.60;;;;;;5032117;28;20473;-78
2022/01/05 12:37:39;;;;;;;4.67;1.70;;;6.20;91.90;;;;;;5031457;28;21090;-78
2022/01/05 12:40:33;;;;;;;4.00;1.50;;;6.10;93.70;;;;;;5034827;28;20446;-77
2022/01/05 12:43:18;;;;;;;4.53;2.10;;;5.50;94.00;;;;;;5035178;28;20465;-78
2022/01/05 12:45:57;;;;;;;10.13;2.40;;;5.20;94.80;;;;;;5038613;28;20460;-78
2022/01/05 12:48:32;;;;;;;4.03;1.80;;;4.80;95.30;;;;;;5052606;28;20472;-78
2022/01/05 12:51:20;;;;;;;2.80;1.03;;;4.60;96.20;;;;;;5052643;28;20507;-78
2022/01/05 12:53:52;;;;;;;6.17;1.83;;;4.50;96.70;;;;;;5051989;28;20442;-78
2022/01/05 12:56:23;;;;;;;5.00;1.60;;;4.30;98.30;;;;;;5034256;28;20427;-78
2022/01/05 12:58:53;;;;;;;5.53;1.53;;;4.30;99.40;;;;;;5017805;28;20428;-78
2022/01/05 13:01:20;;;;;;;3.23;1.80;;;4.10;99.00;;;;;;5052320;28;20428;-78
2022/01/05 13:03:46;;;;;;;9.97;1.43;;;4.10;99.90;;;;;;5051422;28;20476;-77
2022/01/05 13:06:25;;;;;;;5.93;1.90;;;3.90;99.90;;;;;;5051729;28;20950;-77
2022/01/05 13:08:58;;;;;;;6.85;1.92;;;3.80;99.90;;;;;;5033690;28;20186;-77
2022/01/05 13:11:43;;;;;;;6.25;1.75;;;3.70;99.60;;;;;;5051612;28;20216;-77